sensor_id;sensor_type;location;lat;lon;timestamp;pressure;altitude;pressure_sealevel;temperature;humidity
13952;BME280;39535;52.192;9.886;2024-03-25T00:00:08;98982.44;;;4.86;100.00
13952;BME280;39535;52.192;9.886;2024-03-25T00:02:36;98973.53;;;4.99;100.00
13952;BME280;39535;52.192;9.886;2024-03-25T00:05:01;98969.47;;;4.87;100.00
13952;BME280;39535;52.192;9.886;2024-03-25T00:07:27;98970.38;;;4.85;100.00
13952;BME280;39535;52.192;9.886;2024-03-25T00:09:53;98978.13;;;4.86;100.00
13952;BME280;39535;52.192;9.886;2024-03-25T00:12:20;98975.41;;;4.92;100.00
13952;BME280;39535;52.192;9.886;2024-03-25T00:14:45;98975.28;;;4.98;100.00
13952;BME280;39535;52.192;9.886;2024-03-25T00:17:13;98974.44;;;4.98;100.00
13952;BME280;39535;52.192;9.886;2024-03-25T00:19:40;98956.38;;;4.96;100.00
13952;BME280;39535;52.192;9.886;2024-03-25T00:22:07;98940.00;;;4.97;100.00
13952;BME280;39535;52.192;9.886;2024-03-25T00:24:32;98938.81;;;5.12;100.00
13952;BME280;39535;52.192;9.886;2024-03-25T00:26:59;98947.88;;;5.32;100.00
13952;BME280;39535;52.192;9.886;2024-03-25T00:29:24;98948.91;;;5.23;100.00
13952;BME280;39535;52.192;9.886;2024-03-25T00:31:50;98953.31;;;5.20;100.00
13952;BME280;39535;52.192;9.886;2024-03-25T00:34:17;98962.88;;;5.16;100.00
13952;BME280;39535;52.192;9.886;2024-03-25T00:36:43;98969.66;;;5.22;100.00
13952;BME280;39535;52.192;9.886;2024-03-25T00:39:09;98982.19;;;5.00;100.00
13952;BME280;39535;52.192;9.886;2024-03-25T00:41:36;98999.34;;;5.02;100.00
13952;BME280;39535;52.192;9.886;2024-03-25T00:44:01;98978.25;;;4.80;100.00
13952;BME280;39535;52.192;9.886;2024-03-25T00:46:28;98957.53;;;4.82;100.00
13952;BME280;39535;52.192;9.886;2024-03-25T00:48:53;98949.31;;;5.05;100.00
13952;BME280;39535;52.192;9.886;2024-03-25T00:51:21;98951.75;;;5.11;100.00
13952;BME280;39535;52.192;9.886;2024-03-25T00:53:46;98931.00;;;4.72;100.00
13952;BME280;39535;52.192;9.886;2024-03-25T00:56:12;98902.53;;;4.73;100.00
13952;BME280;39535;52.192;9.886;2024-03-25T00:58:38;98887.06;;;4.72;100.00
13952;BME280;39535;52.192;9.886;2024-03-25T01:01:04;98884.53;;;4.69;100.00
13952;BME280;39535;52.192;9.886;2024-03-25T01:03:32;98883.25;;;4.90;100.00
13952;BME280;39535;52.192;9.886;2024-03-25T01:05:59;98874.81;;;4.82;100.00
13952;BME280;39535;52.192;9.886;2024-03-25T01:08:25;98876.34;;;4.90;100.00
13952;BME280;39535;52.192;9.886;2024-03-25T01:10:52;98885.63;;;4.99;100.00
13952;BME280;39535;52.192;9.886;2024-03-25T01:13:17;98907.91;;;5.05;100.00
13952;BME280;39535;52.192;9.886;2024-03-25T01:15:43;98915.56;;;5.09;100.00
13952;BME280;39535;52.192;9.886;2024-03-25T01:18:09;98941.53;;;5.05;100.00
13952;BME280;39535;52.192;9.886;2024-03-25T01:20:35;98954.28;;;5.14;100.00
13952;BME280;39535;52.192;9.886;2024-03-25T01:23:00;98973.09;;;5.22;100.00
13952;BME280;39535;52.192;9.886;2024-03-25T01:25:28;98991.44;;;5.11;100.00
13952;BME280;39535;52.192;9.886;2024-03-25T01:27:53;99001.56;;;5.21;100.00
13952;BME280;39535;52.192;9.886;2024-03-25T01:30:20;99026.84;;;5.08;100.00
13952;BME280;39535;52.192;9.886;2024-03-25T01:32:45;99030.38;;;5.04;100.00
13952;BME280;39535;52.192;9.886;2024-03-25T01:35:13;99021.78;;;5.02;100.00
13952;BME280;39535;52.192;9.886;2024-03-25T01:37:39;99028.28;;;5.21;100.00
13952;BME280;39535;52.192;9.886;2024-03-25T01:40:07;99036.25;;;5.12;100.00
13952;BME280;39535;52.192;9.886;2024-03-25T01:42:33;99048.09;;;5.22;100.00
13952;BME280;39535;52.192;9.886;2024-03-25T01:45:00;99053.44;;;5.13;100.00
13952;BME280;39535;52.192;9.886;2024-03-25T01:47:26;99056.84;;;5.15;100.00
13952;BME280;39535;52.192;9.886;2024-03-25T01:49:53;99063.50;;;5.28;100.00
13952;BME280;39535;52.192;9.886;2024-03-25T01:52:21;99089.63;;;5.14;100.00
13952;BME280;39535;52.192;9.886;2024-03-25T01:54:49;99088.59;;;5.23;100.00
13952;BME280;39535;52.192;9.886;2024-03-25T01:57:14;99108.97;;;5.42;100.00
13952;BME280;39535;52.192;9.886;2024-03-25T01:59:42;99126.63;;;5.20;100.00
13952;BME280;39535;52.192;9.886;2024-03-25T02:02:08;99140.19;;;5.32;100.00
13952;BME280;39535;52.192;9.886;2024-03-25T02:04:36;99153.22;;;5.28;100.00
13952;BME280;39535;52.192;9.886;2024-03-25T02:07:02;99160.97;;;5.28;100.00
13952;BME280;39535;52.192;9.886;2024-03-25T02:09:29;99186.66;;;5.37;100.00
13952;BME280;39535;52.192;9.886;2024-03-25T02:11:54;99184.03;;;5.40;100.00
13952;BME280;39535;52.192;9.886;2024-03-25T02:14:21;99180.63;;;5.38;100.00
13952;BME280;39535;52.192;9.886;2024-03-25T02:16:48;99172.16;;;5.28;100.00
13952;BME280;39535;52.192;9.886;2024-03-25T02:19:15;99173.94;;;5.25;100.00
13952;BME280;39535;52.192;9.886;2024-03-25T02:21:41;99181.13;;;5.07;100.00
13952;BME280;39535;52.192;9.886;2024-03-25T02:24:09;99177.56;;;5.14;100.00
13952;BME280;39535;52.192;9.886;2024-03-25T02:26:36;99164.84;;;5.04;100.00
13952;BME280;39535;52.192;9.886;2024-03-25T02:29:02;99143.41;;;4.95;100.00
13952;BME280;39535;52.192;9.886;2024-03-25T02:31:28;99133.28;;;4.83;100.00
13952;BME280;39535;52.192;9.886;2024-03-25T02:33:54;99135.75;;;4.89;100.00
13952;BME280;39535;52.192;9.886;2024-03-25T02:36:19;99151.25;;;4.91;100.00
13952;BME280;39535;52.192;9.886;2024-03-25T02:38:46;99157.97;;;5.01;100.00
13952;BME280;39535;52.192;9.886;2024-03-25T02:41:11;99157.84;;;5.07;100.00
13952;BME280;39535;52.192;9.886;2024-03-25T02:43:39;99179.75;;;4.88;100.00
13952;BME280;39535;52.192;9.886;2024-03-25T02:46:04;99190.53;;;5.13;100.00
13952;BME280;39535;52.192;9.886;2024-03-25T02:48:30;99182.91;;;5.05;100.00
13952;BME280;39535;52.192;9.886;2024-03-25T02:50:56;99180.47;;;4.97;100.00
13952;BME280;39535;52.192;9.886;2024-03-25T02:53:22;99183.78;;;5.06;100.00
13952;BME280;39535;52.192;9.886;2024-03-25T02:55:48;99182.19;;;4.95;100.00
13952;BME280;39535;52.192;9.886;2024-03-25T02:58:14;99185.91;;;4.81;100.00
13952;BME280;39535;52.192;9.886;2024-03-25T03:00:41;99191.78;;;4.89;100.00
13952;BME280;39535;52.192;9.886;2024-03-25T03:03:07;99216.72;;;4.91;100.00
13952;BME280;39535;52.192;9.886;2024-03-25T03:05:32;99223.81;;;4.82;100.00
13952;BME280;39535;52.192;9.886;2024-03-25T03:08:00;99228.72;;;4.97;100.00
13952;BME280;39535;52.192;9.886;2024-03-25T03:10:27;99235.97;;;4.73;100.00
13952;BME280;39535;52.192;9.886;2024-03-25T03:12:54;99223.00;;;4.76;100.00
13952;BME280;39535;52.192;9.886;2024-03-25T03:15:19;99227.28;;;4.77;100.00
13952;BME280;39535;52.192;9.886;2024-03-25T03:17:47;99221.03;;;4.94;100.00
13952;BME280;39535;52.192;9.886;2024-03-25T03:20:12;99228.94;;;4.83;100.00
13952;BME280;39535;52.192;9.886;2024-03-25T03:22:38;99228.91;;;4.85;100.00
13952;BME280;39535;52.192;9.886;2024-03-25T03:25:05;99234.47;;;5.14;100.00
13952;BME280;39535;52.192;9.886;2024-03-25T03:27:31;99242.47;;;5.01;100.00
13952;BME280;39535;52.192;9.886;2024-03-25T03:29:57;99259.72;;;5.00;100.00
13952;BME280;39535;52.192;9.886;2024-03-25T03:32:23;99243.19;;;5.10;100.00
13952;BME280;39535;52.192;9.886;2024-03-25T03:34:50;99261.34;;;5.06;100.00
13952;BME280;39535;52.192;9.886;2024-03-25T03:37:16;99270.88;;;5.02;100.00
13952;BME280;39535;52.192;9.886;2024-03-25T03:39:41;99261.25;;;5.12;100.00
13952;BME280;39535;52.192;9.886;2024-03-25T03:42:08;99270.78;;;5.08;100.00
13952;BME280;39535;52.192;9.886;2024-03-25T03:44:33;99256.34;;;4.93;100.00
13952;BME280;39535;52.192;9.886;2024-03-25T03:46:59;99253.53;;;5.09;100.00
13952;BME280;39535;52.192;9.886;2024-03-25T03:49:25;99261.25;;;5.13;100.00
13952;BME280;39535;52.192;9.886;2024-03-25T03:51:52;99275.03;;;5.14;100.00
13952;BME280;39535;52.192;9.886;2024-03-25T03:54:18;99267.97;;;5.24;100.00
13952;BME280;39535;52.192;9.886;2024-03-25T03:56:44;99277.66;;;5.09;100.00
13952;BME280;39535;52.192;9.886;2024-03-25T03:59:10;99270.16;;;4.94;100.00
13952;BME280;39535;52.192;9.886;2024-03-25T04:01:36;99257.13;;;5.02;100.00
13952;BME280;39535;52.192;9.886;2024-03-25T04:04:01;99265.81;;;4.96;100.00
13952;BME280;39535;52.192;9.886;2024-03-25T04:06:28;99267.41;;;5.03;100.00
13952;BME280;39535;52.192;9.886;2024-03-25T04:08:54;99282.34;;;4.86;100.00
13952;BME280;39535;52.192;9.886;2024-03-25T04:11:21;99279.78;;;4.84;100.00
13952;BME280;39535;52.192;9.886;2024-03-25T04:13:48;99272.06;;;4.81;100.00
13952;BME280;39535;52.192;9.886;2024-03-25T04:16:14;99256.53;;;4.83;100.00
13952;BME280;39535;52.192;9.886;2024-03-25T04:18:40;99258.09;;;4.93;100.00
13952;BME280;39535;52.192;9.886;2024-03-25T04:21:11;99243.63;;;4.81;100.00
13952;BME280;39535;52.192;9.886;2024-03-25T04:23:37;99240.09;;;4.85;100.00
13952;BME280;39535;52.192;9.886;2024-03-25T04:26:04;99244.19;;;5.00;100.00
13952;BME280;39535;52.192;9.886;2024-03-25T04:28:32;99246.72;;;5.03;100.00
13952;BME280;39535;52.192;9.886;2024-03-25T04:30:59;99245.84;;;5.06;100.00
13952;BME280;39535;52.192;9.886;2024-03-25T04:33:24;99243.59;;;4.84;100.00
13952;BME280;39535;52.192;9.886;2024-03-25T04:35:51;99239.63;;;5.16;100.00
13952;BME280;39535;52.192;9.886;2024-03-25T04:38:16;99244.91;;;5.11;100.00
13952;BME280;39535;52.192;9.886;2024-03-25T04:40:42;99239.84;;;5.04;100.00
13952;BME280;39535;52.192;9.886;2024-03-25T04:43:09;99233.06;;;4.95;100.00
13952;BME280;39535;52.192;9.886;2024-03-25T04:45:34;99228.78;;;4.94;100.00
13952;BME280;39535;52.192;9.886;2024-03-25T04:48:00;99227.91;;;4.93;100.00
13952;BME280;39535;52.192;9.886;2024-03-25T04:50:25;99205.53;;;4.92;100.00
13952;BME280;39535;52.192;9.886;2024-03-25T04:52:51;99204.84;;;4.80;100.00
13952;BME280;39535;52.192;9.886;2024-03-25T04:55:17;99179.88;;;4.80;100.00
13952;BME280;39535;52.192;9.886;2024-03-25T04:57:42;99166.88;;;4.85;100.00
13952;BME280;39535;52.192;9.886;2024-03-25T05:00:10;99155.22;;;5.12;100.00
13952;BME280;39535;52.192;9.886;2024-03-25T05:02:36;99161.00;;;5.25;100.00
13952;BME280;39535;52.192;9.886;2024-03-25T05:05:02;99166.59;;;5.02;100.00
13952;BME280;39535;52.192;9.886;2024-03-25T05:07:28;99164.50;;;5.24;100.00
13952;BME280;39535;52.192;9.886;2024-03-25T05:09:53;99172.28;;;5.22;100.00
13952;BME280;39535;52.192;9.886;2024-03-25T05:12:19;99170.25;;;5.38;100.00
13952;BME280;39535;52.192;9.886;2024-03-25T05:14:44;99174.16;;;5.12;100.00
13952;BME280;39535;52.192;9.886;2024-03-25T05:17:11;99168.84;;;5.22;100.00
13952;BME280;39535;52.192;9.886;2024-03-25T05:19:36;99162.03;;;5.16;100.00
13952;BME280;39535;52.192;9.886;2024-03-25T05:22:05;99155.44;;;4.98;100.00
13952;BME280;39535;52.192;9.886;2024-03-25T05:24:30;99149.22;;;5.10;100.00
13952;BME280;39535;52.192;9.886;2024-03-25T05:26:55;99137.25;;;5.04;100.00
13952;BME280;39535;52.192;9.886;2024-03-25T05:29:21;99133.72;;;5.08;100.00
13952;BME280;39535;52.192;9.886;2024-03-25T05:31:56;99139.50;;;5.23;100.00
13952;BME280;39535;52.192;9.886;2024-03-25T05:34:23;99152.75;;;5.06;100.00
13952;BME280;39535;52.192;9.886;2024-03-25T05:36:49;99151.34;;;5.34;100.00
13952;BME280;39535;52.192;9.886;2024-03-25T05:39:14;99169.56;;;5.30;100.00
13952;BME280;39535;52.192;9.886;2024-03-25T05:41:40;99191.91;;;5.34;100.00
13952;BME280;39535;52.192;9.886;2024-03-25T05:44:05;99201.31;;;5.38;100.00
13952;BME280;39535;52.192;9.886;2024-03-25T05:46:31;99214.50;;;5.24;100.00
13952;BME280;39535;52.192;9.886;2024-03-25T05:48:56;99226.63;;;5.21;100.00
13952;BME280;39535;52.192;9.886;2024-03-25T05:51:23;99215.03;;;5.43;100.00
13952;BME280;39535;52.192;9.886;2024-03-25T05:53:48;99255.44;;;5.50;100.00
13952;BME280;39535;52.192;9.886;2024-03-25T05:56:14;99276.47;;;5.32;100.00
13952;BME280;39535;52.192;9.886;2024-03-25T05:58:39;99284.00;;;5.44;100.00
13952;BME280;39535;52.192;9.886;2024-03-25T06:01:05;99296.69;;;5.61;100.00
13952;BME280;39535;52.192;9.886;2024-03-25T06:03:30;99313.09;;;5.58;100.00
13952;BME280;39535;52.192;9.886;2024-03-25T06:05:56;99328.19;;;5.33;100.00
13952;BME280;39535;52.192;9.886;2024-03-25T06:08:22;99329.66;;;5.50;100.00
13952;BME280;39535;52.192;9.886;2024-03-25T06:10:49;99331.28;;;5.55;100.00
13952;BME280;39535;52.192;9.886;2024-03-25T06:13:15;99344.25;;;5.52;100.00
13952;BME280;39535;52.192;9.886;2024-03-25T06:15:40;99356.94;;;5.69;100.00
13952;BME280;39535;52.192;9.886;2024-03-25T06:18:06;99368.41;;;5.53;100.00
13952;BME280;39535;52.192;9.886;2024-03-25T06:20:31;99381.97;;;5.69;100.00
13952;BME280;39535;52.192;9.886;2024-03-25T06:22:56;99386.34;;;5.65;100.00
13952;BME280;39535;52.192;9.886;2024-03-25T06:25:23;99391.78;;;5.48;100.00
13952;BME280;39535;52.192;9.886;2024-03-25T06:27:49;99391.56;;;5.62;100.00
13952;BME280;39535;52.192;9.886;2024-03-25T06:30:14;99378.84;;;5.48;100.00
13952;BME280;39535;52.192;9.886;2024-03-25T06:32:58;99358.72;;;5.66;100.00
13952;BME280;39535;52.192;9.886;2024-03-25T06:35:44;99364.50;;;5.82;100.00
13952;BME280;39535;52.192;9.886;2024-03-25T06:38:10;99374.78;;;5.86;100.00
13952;BME280;39535;52.192;9.886;2024-03-25T06:40:37;99372.19;;;5.86;100.00
13952;BME280;39535;52.192;9.886;2024-03-25T06:43:03;99373.06;;;5.87;100.00
13952;BME280;39535;52.192;9.886;2024-03-25T06:45:29;99367.97;;;5.81;100.00
13952;BME280;39535;52.192;9.886;2024-03-25T06:47:54;99355.72;;;5.90;100.00
13952;BME280;39535;52.192;9.886;2024-03-25T06:50:22;99361.56;;;6.05;100.00
13952;BME280;39535;52.192;9.886;2024-03-25T06:52:47;99368.41;;;5.53;100.00
13952;BME280;39535;52.192;9.886;2024-03-25T06:55:13;99359.97;;;5.42;100.00
13952;BME280;39535;52.192;9.886;2024-03-25T06:57:40;99330.28;;;5.63;100.00
13952;BME280;39535;52.192;9.886;2024-03-25T07:00:06;99324.97;;;5.72;100.00
13952;BME280;39535;52.192;9.886;2024-03-25T07:02:32;99322.22;;;5.81;100.00
13952;BME280;39535;52.192;9.886;2024-03-25T07:04:57;99318.81;;;5.77;100.00
13952;BME280;39535;52.192;9.886;2024-03-25T07:07:23;99330.06;;;5.76;100.00
13952;BME280;39535;52.192;9.886;2024-03-25T07:09:48;99316.63;;;6.04;100.00
13952;BME280;39535;52.192;9.886;2024-03-25T07:12:14;99336.66;;;5.96;100.00
13952;BME280;39535;52.192;9.886;2024-03-25T07:14:41;99377.81;;;5.58;100.00
13952;BME280;39535;52.192;9.886;2024-03-25T07:17:06;99387.91;;;5.75;100.00
13952;BME280;39535;52.192;9.886;2024-03-25T07:19:31;99396.38;;;5.87;100.00
13952;BME280;39535;52.192;9.886;2024-03-25T07:21:57;99406.69;;;5.88;100.00
13952;BME280;39535;52.192;9.886;2024-03-25T07:24:22;99438.78;;;5.80;100.00
13952;BME280;39535;52.192;9.886;2024-03-25T07:26:48;99443.97;;;5.76;100.00
13952;BME280;39535;52.192;9.886;2024-03-25T07:29:13;99446.41;;;5.89;100.00
13952;BME280;39535;52.192;9.886;2024-03-25T07:31:40;99462.78;;;5.89;100.00
13952;BME280;39535;52.192;9.886;2024-03-25T07:34:05;99468.91;;;5.84;100.00
13952;BME280;39535;52.192;9.886;2024-03-25T07:36:31;99494.69;;;5.91;99.38
13952;BME280;39535;52.192;9.886;2024-03-25T07:38:56;99516.06;;;6.07;98.91
13952;BME280;39535;52.192;9.886;2024-03-25T07:41:22;99543.19;;;5.80;98.13
13952;BME280;39535;52.192;9.886;2024-03-25T07:43:47;99532.63;;;5.97;99.52
13952;BME280;39535;52.192;9.886;2024-03-25T07:46:13;99554.22;;;5.94;97.10
13952;BME280;39535;52.192;9.886;2024-03-25T07:48:39;99567.81;;;6.12;97.30
13952;BME280;39535;52.192;9.886;2024-03-25T07:51:05;99593.88;;;6.03;95.94
13952;BME280;39535;52.192;9.886;2024-03-25T07:53:30;99608.59;;;5.97;96.59
13952;BME280;39535;52.192;9.886;2024-03-25T07:55:56;99603.22;;;6.14;96.84
13952;BME280;39535;52.192;9.886;2024-03-25T07:58:21;99604.22;;;6.03;96.24
13952;BME280;39535;52.192;9.886;2024-03-25T08:00:47;99613.41;;;6.24;94.96
13952;BME280;39535;52.192;9.886;2024-03-25T08:03:12;99634.94;;;6.30;94.83
13952;BME280;39535;52.192;9.886;2024-03-25T08:05:39;99651.56;;;6.12;94.68
13952;BME280;39535;52.192;9.886;2024-03-25T08:08:05;99651.38;;;6.26;95.53
13952;BME280;39535;52.192;9.886;2024-03-25T08:10:31;99645.13;;;6.43;94.52
13952;BME280;39535;52.192;9.886;2024-03-25T08:12:57;99682.44;;;6.29;92.29
13952;BME280;39535;52.192;9.886;2024-03-25T08:15:22;99696.78;;;6.53;91.80
13952;BME280;39535;52.192;9.886;2024-03-25T08:17:48;99725.94;;;6.69;90.33
13952;BME280;39535;52.192;9.886;2024-03-25T08:20:13;99749.28;;;6.69;88.74
13952;BME280;39535;52.192;9.886;2024-03-25T08:22:40;99751.03;;;6.70;90.78
13952;BME280;39535;52.192;9.886;2024-03-25T08:25:06;99764.25;;;6.50;89.83
13952;BME280;39535;52.192;9.886;2024-03-25T08:27:32;99755.41;;;6.67;90.81
13952;BME280;39535;52.192;9.886;2024-03-25T08:29:57;99785.69;;;6.62;88.97
13952;BME280;39535;52.192;9.886;2024-03-25T08:32:23;99822.72;;;6.73;87.56
13952;BME280;39535;52.192;9.886;2024-03-25T08:34:48;99831.50;;;6.64;87.44
13952;BME280;39535;52.192;9.886;2024-03-25T08:37:13;99841.69;;;6.78;86.98
13952;BME280;39535;52.192;9.886;2024-03-25T08:39:40;99856.38;;;6.79;86.43
13952;BME280;39535;52.192;9.886;2024-03-25T08:42:06;99890.00;;;6.88;85.03
13952;BME280;39535;52.192;9.886;2024-03-25T08:44:31;99898.59;;;6.90;84.83
13952;BME280;39535;52.192;9.886;2024-03-25T08:46:57;99915.06;;;6.88;84.80
13952;BME280;39535;52.192;9.886;2024-03-25T08:49:22;99921.72;;;7.09;84.25
13952;BME280;39535;52.192;9.886;2024-03-25T08:51:48;99923.38;;;7.13;84.72
13952;BME280;39535;52.192;9.886;2024-03-25T08:54:13;99927.81;;;7.05;84.79
13952;BME280;39535;52.192;9.886;2024-03-25T08:56:40;99932.19;;;7.03;85.01
13952;BME280;39535;52.192;9.886;2024-03-25T08:59:05;99948.97;;;6.74;83.08
13952;BME280;39535;52.192;9.886;2024-03-25T09:01:31;99987.06;;;6.66;82.24
13952;BME280;39535;52.192;9.886;2024-03-25T09:03:56;99951.41;;;6.88;83.85
13952;BME280;39535;52.192;9.886;2024-03-25T09:06:22;99966.06;;;6.89;83.03
13952;BME280;39535;52.192;9.886;2024-03-25T09:08:47;99978.22;;;6.85;82.06
13952;BME280;39535;52.192;9.886;2024-03-25T09:11:31;100018.03;;;6.80;80.56
13952;BME280;39535;52.192;9.886;2024-03-25T09:13:58;100016.28;;;6.82;82.99
13952;BME280;39535;52.192;9.886;2024-03-25T09:16:24;99983.81;;;7.23;83.67
13952;BME280;39535;52.192;9.886;2024-03-25T09:18:49;99983.91;;;7.15;83.98
13952;BME280;39535;52.192;9.886;2024-03-25T09:21:15;99956.91;;;7.31;85.20
13952;BME280;39535;52.192;9.886;2024-03-25T09:23:40;99966.56;;;7.20;84.75
13952;BME280;39535;52.192;9.886;2024-03-25T09:26:05;99957.63;;;7.41;83.68
13952;BME280;39535;52.192;9.886;2024-03-25T09:28:31;100020.16;;;7.23;79.52
13952;BME280;39535;52.192;9.886;2024-03-25T09:30:58;100071.22;;;7.24;77.74
13952;BME280;39535;52.192;9.886;2024-03-25T09:33:23;100122.31;;;7.17;76.16
13952;BME280;39535;52.192;9.886;2024-03-25T09:35:49;100135.34;;;7.14;78.82
13952;BME280;39535;52.192;9.886;2024-03-25T09:38:14;100141.97;;;7.43;76.94
13952;BME280;39535;52.192;9.886;2024-03-25T09:40:40;100189.59;;;7.42;74.97
13952;BME280;39535;52.192;9.886;2024-03-25T09:43:13;100233.53;;;7.62;73.67
13952;BME280;39535;52.192;9.886;2024-03-25T09:45:40;100265.44;;;7.78;73.97
13952;BME280;39535;52.192;9.886;2024-03-25T09:48:08;100267.19;;;7.77;74.54
13952;BME280;39535;52.192;9.886;2024-03-25T09:50:34;100304.53;;;7.61;74.39
13952;BME280;39535;52.192;9.886;2024-03-25T09:53:00;100261.84;;;7.88;75.79
13952;BME280;39535;52.192;9.886;2024-03-25T09:55:26;100263.69;;;7.78;74.69
13952;BME280;39535;52.192;9.886;2024-03-25T09:57:52;100279.31;;;7.73;73.79
13952;BME280;39535;52.192;9.886;2024-03-25T10:00:17;100300.41;;;7.40;73.88
13952;BME280;39535;52.192;9.886;2024-03-25T10:02:44;100286.63;;;7.31;74.52
13952;BME280;39535;52.192;9.886;2024-03-25T10:05:10;100290.75;;;7.52;74.83
13952;BME280;39535;52.192;9.886;2024-03-25T10:07:36;100284.59;;;7.64;74.70
13952;BME280;39535;52.192;9.886;2024-03-25T10:10:03;100312.50;;;7.42;72.67
13952;BME280;39535;52.192;9.886;2024-03-25T10:12:29;100318.53;;;7.47;73.53
13952;BME280;39535;52.192;9.886;2024-03-25T10:14:54;100306.19;;;7.71;72.92
13952;BME280;39535;52.192;9.886;2024-03-25T10:17:20;100398.09;;;7.54;66.32
13952;BME280;39535;52.192;9.886;2024-03-25T10:19:45;100470.84;;;7.58;64.98
13952;BME280;39535;52.192;9.886;2024-03-25T10:22:12;100507.13;;;7.68;66.37
13952;BME280;39535;52.192;9.886;2024-03-25T10:24:39;100497.44;;;7.93;65.76
13952;BME280;39535;52.192;9.886;2024-03-25T10:27:04;100511.19;;;8.08;65.00
13952;BME280;39535;52.192;9.886;2024-03-25T10:29:30;100557.94;;;8.19;64.80
13952;BME280;39535;52.192;9.886;2024-03-25T10:31:59;100590.03;;;8.13;64.34
13952;BME280;39535;52.192;9.886;2024-03-25T10:34:24;100611.75;;;8.00;62.29
13952;BME280;39535;52.192;9.886;2024-03-25T10:36:50;100622.94;;;8.17;63.97
13952;BME280;39535;52.192;9.886;2024-03-25T10:39:19;100647.25;;;8.04;60.81
13952;BME280;39535;52.192;9.886;2024-03-25T10:41:46;100663.69;;;8.15;61.82
13952;BME280;39535;52.192;9.886;2024-03-25T10:44:12;100673.28;;;7.98;60.13
13952;BME280;39535;52.192;9.886;2024-03-25T10:46:38;100708.00;;;7.87;60.30
13952;BME280;39535;52.192;9.886;2024-03-25T10:49:11;100694.00;;;8.16;61.38
13952;BME280;39535;52.192;9.886;2024-03-25T10:51:38;100703.56;;;8.09;59.99
13952;BME280;39535;52.192;9.886;2024-03-25T10:54:04;100701.69;;;8.42;61.31
13952;BME280;39535;52.192;9.886;2024-03-25T10:56:32;100733.81;;;8.26;58.47
13952;BME280;39535;52.192;9.886;2024-03-25T10:58:59;100732.03;;;8.39;60.10
13952;BME280;39535;52.192;9.886;2024-03-25T11:01:25;100711.00;;;8.77;59.96
13952;BME280;39535;52.192;9.886;2024-03-25T11:03:51;100736.16;;;8.80;58.70
13952;BME280;39535;52.192;9.886;2024-03-25T11:06:17;100733.47;;;8.90;58.84
13952;BME280;39535;52.192;9.886;2024-03-25T11:08:42;100769.94;;;8.89;57.00
13952;BME280;39535;52.192;9.886;2024-03-25T11:11:08;100764.72;;;8.92;58.41
13952;BME280;39535;52.192;9.886;2024-03-25T11:13:36;100784.94;;;8.45;58.04
13952;BME280;39535;52.192;9.886;2024-03-25T11:16:02;100750.88;;;8.84;60.03
13952;BME280;39535;52.192;9.886;2024-03-25T11:18:28;100738.78;;;8.75;59.74
13952;BME280;39535;52.192;9.886;2024-03-25T11:21:04;100733.59;;;8.73;60.69
13952;BME280;39535;52.192;9.886;2024-03-25T11:23:36;100733.59;;;8.73;58.43
13952;BME280;39535;52.192;9.886;2024-03-25T11:26:01;100769.16;;;8.73;56.36
13952;BME280;39535;52.192;9.886;2024-03-25T11:28:27;100786.34;;;9.00;57.21
13952;BME280;39535;52.192;9.886;2024-03-25T11:30:55;100814.00;;;9.15;56.06
13952;BME280;39535;52.192;9.886;2024-03-25T11:33:21;100834.16;;;8.84;56.17
13952;BME280;39535;52.192;9.886;2024-03-25T11:35:46;100836.06;;;8.51;55.74
13952;BME280;39535;52.192;9.886;2024-03-25T11:38:11;100827.34;;;8.64;55.58
13952;BME280;39535;52.192;9.886;2024-03-25T11:40:38;100829.78;;;8.93;56.19
13952;BME280;39535;52.192;9.886;2024-03-25T11:43:06;100818.38;;;9.16;56.46
13952;BME280;39535;52.192;9.886;2024-03-25T11:45:32;100802.56;;;9.36;57.16
13952;BME280;39535;52.192;9.886;2024-03-25T11:47:58;100824.53;;;9.00;56.20
13952;BME280;39535;52.192;9.886;2024-03-25T11:50:24;100819.38;;;8.92;56.15
13952;BME280;39535;52.192;9.886;2024-03-25T11:52:49;100824.72;;;8.69;56.77
13952;BME280;39535;52.192;9.886;2024-03-25T11:55:16;100800.22;;;8.99;56.91
13952;BME280;39535;52.192;9.886;2024-03-25T11:57:42;100781.09;;;9.08;57.10
13952;BME280;39535;52.192;9.886;2024-03-25T12:00:08;100783.03;;;8.78;56.92
13952;BME280;39535;52.192;9.886;2024-03-25T12:02:34;100765.53;;;8.97;57.43
13952;BME280;39535;52.192;9.886;2024-03-25T12:05:01;100765.53;;;8.95;56.91
13952;BME280;39535;52.192;9.886;2024-03-25T12:07:27;100755.97;;;9.02;57.94
13952;BME280;39535;52.192;9.886;2024-03-25T12:09:52;100732.59;;;8.91;60.48
13952;BME280;39535;52.192;9.886;2024-03-25T12:12:47;100684.13;;;8.75;60.32
13952;BME280;39535;52.192;9.886;2024-03-25T12:15:13;100655.38;;;8.92;60.62
13952;BME280;39535;52.192;9.886;2024-03-25T12:17:39;100631.75;;;9.10;60.94
13952;BME280;39535;52.192;9.886;2024-03-25T12:20:08;100623.19;;;9.01;60.33
13952;BME280;39535;52.192;9.886;2024-03-25T12:22:34;100615.03;;;9.31;62.19
13952;BME280;39535;52.192;9.886;2024-03-25T12:25:00;100579.22;;;9.49;61.28
13952;BME280;39535;52.192;9.886;2024-03-25T12:27:28;100619.50;;;9.22;59.14
13952;BME280;39535;52.192;9.886;2024-03-25T12:29:58;100615.94;;;9.29;61.17
13952;BME280;39535;52.192;9.886;2024-03-25T12:32:30;100593.19;;;9.43;60.27
13952;BME280;39535;52.192;9.886;2024-03-25T12:34:57;100599.91;;;9.61;60.16
13952;BME280;39535;52.192;9.886;2024-03-25T12:37:26;100611.34;;;9.51;58.78
13952;BME280;39535;52.192;9.886;2024-03-25T12:39:51;100629.47;;;9.62;58.15
13952;BME280;39535;52.192;9.886;2024-03-25T12:42:17;100640.09;;;9.43;59.38
13952;BME280;39535;52.192;9.886;2024-03-25T12:44:42;100639.00;;;9.63;58.97
13952;BME280;39535;52.192;9.886;2024-03-25T12:47:08;100616.19;;;9.82;59.66
13952;BME280;39535;52.192;9.886;2024-03-25T12:49:33;100632.00;;;9.69;59.08
13952;BME280;39535;52.192;9.886;2024-03-25T12:51:59;100638.31;;;9.45;59.41
13952;BME280;39535;52.192;9.886;2024-03-25T12:54:26;100633.13;;;9.45;59.77
13952;BME280;39535;52.192;9.886;2024-03-25T12:56:51;100600.50;;;9.85;59.94